sensor_id;sensor_type;location;lat;lon;timestamp;temperature;humidity
15048;DHT22;7621;52.350;13.308;2022-07-29T15:10:20;29.40;45.80
15048;DHT22;7621;52.350;13.308;2022-07-29T15:12:45;29.40;44.90
15048;DHT22;7621;52.350;13.308;2022-07-29T15:15:11;29.30;44.70
15048;DHT22;7621;52.350;13.308;2022-07-29T15:17:36;29.40;45.10
15048;DHT22;7621;52.350;13.308;2022-07-29T15:20:03;29.30;45.30
15048;DHT22;7621;52.350;13.308;2022-07-29T15:22:29;29.30;44.90
15048;DHT22;7621;52.350;13.308;2022-07-29T15:24:55;29.30;44.80
15048;DHT22;7621;52.350;13.308;2022-07-29T15:27:20;29.30;44.40
15048;DHT22;7621;52.350;13.308;2022-07-29T15:29:46;29.30;44.40
15048;DHT22;7621;52.350;13.308;2022-07-29T15:32:11;29.30;44.70
15048;DHT22;7621;52.350;13.308;2022-07-29T15:34:37;29.30;44.80
15048;DHT22;7621;52.350;13.308;2022-07-29T15:37:04;29.30;44.10
15048;DHT22;7621;52.350;13.308;2022-07-29T15:39:29;29.30;43.50
15048;DHT22;7621;52.350;13.308;2022-07-29T15:41:55;29.30;43.70
15048;DHT22;7621;52.350;13.308;2022-07-29T15:44:21;29.20;44.40
15048;DHT22;7621;52.350;13.308;2022-07-29T15:46:47;29.20;43.50
15048;DHT22;7621;52.350;13.308;2022-07-29T15:49:29;29.10;43.20
15048;DHT22;7621;52.350;13.308;2022-07-29T15:52:06;29.10;43.30
15048;DHT22;7621;52.350;13.308;2022-07-29T15:54:33;29.10;43.60
15048;DHT22;7621;52.350;13.308;2022-07-29T15:56:59;29.00;44.10
15048;DHT22;7621;52.350;13.308;2022-07-29T15:59:25;29.00;44.60
15048;DHT22;7621;52.350;13.308;2022-07-29T16:01:50;28.90;44.80
15048;DHT22;7621;52.350;13.308;2022-07-29T16:04:16;28.90;44.60
15048;DHT22;7621;52.350;13.308;2022-07-29T16:06:42;28.90;44.40
15048;DHT22;7621;52.350;13.308;2022-07-29T16:09:08;28.80;44.80
15048;DHT22;7621;52.350;13.308;2022-07-29T16:11:33;28.80;44.80
15048;DHT22;7621;52.350;13.308;2022-07-29T16:13:59;28.70;45.20
15048;DHT22;7621;52.350;13.308;2022-07-29T16:16:25;28.70;45.50
15048;DHT22;7621;52.350;13.308;2022-07-29T16:18:50;28.70;45.10
15048;DHT22;7621;52.350;13.308;2022-07-29T16:21:16;28.70;45.00
15048;DHT22;7621;52.350;13.308;2022-07-29T16:23:42;28.70;44.60
15048;DHT22;7621;52.350;13.308;2022-07-29T16:26:07;28.60;44.50
15048;DHT22;7621;52.350;13.308;2022-07-29T16:28:33;28.60;44.60
15048;DHT22;7621;52.350;13.308;2022-07-29T16:30:59;28.70;44.20
15048;DHT22;7621;52.350;13.308;2022-07-29T16:33:25;28.70;44.20
15048;DHT22;7621;52.350;13.308;2022-07-29T16:35:51;28.90;44.00
15048;DHT22;7621;52.350;13.308;2022-07-29T16:38:16;28.90;43.90
15048;DHT22;7621;52.350;13.308;2022-07-29T16:40:43;29.00;43.80
15048;DHT22;7621;52.350;13.308;2022-07-29T16:43:09;29.00;44.00
15048;DHT22;7621;52.350;13.308;2022-07-29T16:45:35;29.10;44.20
15048;DHT22;7621;52.350;13.308;2022-07-29T16:48:01;29.20;44.40
15048;DHT22;7621;52.350;13.308;2022-07-29T16:50:30;29.10;44.50
15048;DHT22;7621;52.350;13.308;2022-07-29T16:52:56;29.10;44.70
15048;DHT22;7621;52.350;13.308;2022-07-29T16:55:22;29.00;45.00
15048;DHT22;7621;52.350;13.308;2022-07-29T16:57:48;29.00;45.10
15048;DHT22;7621;52.350;13.308;2022-07-29T17:00:15;28.90;45.40
15048;DHT22;7621;52.350;13.308;2022-07-29T17:02:41;28.90;46.10
15048;DHT22;7621;52.350;13.308;2022-07-29T17:05:07;28.90;45.50
15048;DHT22;7621;52.350;13.308;2022-07-29T17:07:33;28.80;45.30
15048;DHT22;7621;52.350;13.308;2022-07-29T17:09:58;28.70;45.40
15048;DHT22;7621;52.350;13.308;2022-07-29T17:12:24;28.70;45.40
15048;DHT22;7621;52.350;13.308;2022-07-29T17:14:50;28.60;45.30
15048;DHT22;7621;52.350;13.308;2022-07-29T17:17:15;28.50;45.50
15048;DHT22;7621;52.350;13.308;2022-07-29T17:19:41;28.50;45.80
15048;DHT22;7621;52.350;13.308;2022-07-29T17:22:07;28.40;45.90
15048;DHT22;7621;52.350;13.308;2022-07-29T17:24:33;28.30;46.10
15048;DHT22;7621;52.350;13.308;2022-07-29T17:26:59;28.20;46.20
15048;DHT22;7621;52.350;13.308;2022-07-29T17:29:25;28.10;46.00
15048;DHT22;7621;52.350;13.308;2022-07-29T17:31:50;28.10;46.30
15048;DHT22;7621;52.350;13.308;2022-07-29T17:34:16;28.00;46.30
15048;DHT22;7621;52.350;13.308;2022-07-29T17:36:41;28.00;46.50
15048;DHT22;7621;52.350;13.308;2022-07-29T17:39:08;27.90;46.60
15048;DHT22;7621;52.350;13.308;2022-07-29T17:41:35;27.90;46.70
15048;DHT22;7621;52.350;13.308;2022-07-29T17:44:02;27.80;46.90
15048;DHT22;7621;52.350;13.308;2022-07-29T17:46:27;27.80;46.90
15048;DHT22;7621;52.350;13.308;2022-07-29T17:48:54;27.70;47.00
15048;DHT22;7621;52.350;13.308;2022-07-29T17:51:23;27.70;46.80
15048;DHT22;7621;52.350;13.308;2022-07-29T17:53:49;27.60;46.90
15048;DHT22;7621;52.350;13.308;2022-07-29T17:56:15;27.50;46.70
15048;DHT22;7621;52.350;13.308;2022-07-29T17:58:40;27.40;46.70
15048;DHT22;7621;52.350;13.308;2022-07-29T18:01:06;27.40;46.80
15048;DHT22;7621;52.350;13.308;2022-07-29T18:03:32;27.30;46.90
15048;DHT22;7621;52.350;13.308;2022-07-29T18:05:57;27.30;47.10
15048;DHT22;7621;52.350;13.308;2022-07-29T18:08:23;27.30;47.10
15048;DHT22;7621;52.350;13.308;2022-07-29T18:10:49;27.20;47.30
15048;DHT22;7621;52.350;13.308;2022-07-29T18:13:15;27.20;47.50
15048;DHT22;7621;52.350;13.308;2022-07-29T18:15:41;27.10;47.50
15048;DHT22;7621;52.350;13.308;2022-07-29T18:18:06;27.10;47.70
15048;DHT22;7621;52.350;13.308;2022-07-29T18:20:32;27.00;47.80
15048;DHT22;7621;52.350;13.308;2022-07-29T18:22:58;26.90;47.80
15048;DHT22;7621;52.350;13.308;2022-07-29T18:25:24;26.90;47.90
15048;DHT22;7621;52.350;13.308;2022-07-29T18:27:51;26.90;48.00
15048;DHT22;7621;52.350;13.308;2022-07-29T18:30:16;26.80;48.00
15048;DHT22;7621;52.350;13.308;2022-07-29T18:32:42;26.70;48.00
15048;DHT22;7621;52.350;13.308;2022-07-29T18:35:08;26.70;48.20
15048;DHT22;7621;52.350;13.308;2022-07-29T18:37:34;26.60;48.10
15048;DHT22;7621;52.350;13.308;2022-07-29T18:40:02;26.60;48.10
15048;DHT22;7621;52.350;13.308;2022-07-29T18:42:27;26.60;48.30
15048;DHT22;7621;52.350;13.308;2022-07-29T18:44:53;26.50;48.20
15048;DHT22;7621;52.350;13.308;2022-07-29T18:47:19;26.50;48.30
15048;DHT22;7621;52.350;13.308;2022-07-29T18:49:44;26.40;48.40
15048;DHT22;7621;52.350;13.308;2022-07-29T18:52:10;26.30;48.50
15048;DHT22;7621;52.350;13.308;2022-07-29T18:54:36;26.30;48.70
15048;DHT22;7621;52.350;13.308;2022-07-29T18:57:02;26.20;48.80
15048;DHT22;7621;52.350;13.308;2022-07-29T18:59:27;26.10;48.90
15048;DHT22;7621;52.350;13.308;2022-07-29T19:01:54;26.00;48.90
15048;DHT22;7621;52.350;13.308;2022-07-29T19:04:20;26.00;49.20
15048;DHT22;7621;52.350;13.308;2022-07-29T19:06:45;25.90;49.40
15048;DHT22;7621;52.350;13.308;2022-07-29T19:09:11;25.80;49.50
15048;DHT22;7621;52.350;13.308;2022-07-29T19:11:37;25.80;49.80
15048;DHT22;7621;52.350;13.308;2022-07-29T19:14:04;25.60;49.90
15048;DHT22;7621;52.350;13.308;2022-07-29T19:16:30;25.60;50.00
15048;DHT22;7621;52.350;13.308;2022-07-29T19:18:55;25.60;50.10
15048;DHT22;7621;52.350;13.308;2022-07-29T19:21:21;25.50;50.30
15048;DHT22;7621;52.350;13.308;2022-07-29T19:23:47;25.40;50.40
15048;DHT22;7621;52.350;13.308;2022-07-29T19:26:12;25.40;50.60
15048;DHT22;7621;52.350;13.308;2022-07-29T19:28:38;25.30;50.80
15048;DHT22;7621;52.350;13.308;2022-07-29T19:31:03;25.20;51.00
15048;DHT22;7621;52.350;13.308;2022-07-29T19:33:29;25.20;51.20
15048;DHT22;7621;52.350;13.308;2022-07-29T19:35:55;25.10;51.30
15048;DHT22;7621;52.350;13.308;2022-07-29T19:38:20;25.00;51.50
15048;DHT22;7621;52.350;13.308;2022-07-29T19:40:46;25.00;51.70
15048;DHT22;7621;52.350;13.308;2022-07-29T19:43:12;24.90;51.80
15048;DHT22;7621;52.350;13.308;2022-07-29T19:45:38;24.90;51.90
15048;DHT22;7621;52.350;13.308;2022-07-29T19:48:04;24.80;51.90
15048;DHT22;7621;52.350;13.308;2022-07-29T19:50:30;24.80;52.60
15048;DHT22;7621;52.350;13.308;2022-07-29T19:52:57;24.70;52.10
15048;DHT22;7621;52.350;13.308;2022-07-29T19:55:23;24.70;52.30
15048;DHT22;7621;52.350;13.308;2022-07-29T19:57:49;24.60;52.30
15048;DHT22;7621;52.350;13.308;2022-07-29T20:00:18;24.60;52.50
15048;DHT22;7621;52.350;13.308;2022-07-29T20:02:44;24.50;52.60
15048;DHT22;7621;52.350;13.308;2022-07-29T20:05:10;24.50;52.70
15048;DHT22;7621;52.350;13.308;2022-07-29T20:07:37;24.40;52.70
15048;DHT22;7621;52.350;13.308;2022-07-29T20:10:04;24.40;52.80
15048;DHT22;7621;52.350;13.308;2022-07-29T20:12:30;24.40;53.00
15048;DHT22;7621;52.350;13.308;2022-07-29T20:14:57;24.30;53.00
15048;DHT22;7621;52.350;13.308;2022-07-29T20:17:23;24.30;53.10
15048;DHT22;7621;52.350;13.308;2022-07-29T20:19:50;24.20;53.20
15048;DHT22;7621;52.350;13.308;2022-07-29T20:22:16;24.20;53.30
